• Join FlightAware (Why Join?)
  • Login
  • US Flag 
11:13AM EST


 

Airport Tracker/Info


-or-


 

Live Flight TrackerFlight Track Log ✈ SWA638 ✈ 22-Mar-2014 ✈ KSAN - KMDW

Flight Track Log - Related Links

Times and Time Zones

All times are in EDT time to prevent confusion due to time zone crossing. See the SWA638 flight status page for this flight to view local times or setup timezone preferences in your user account.

Time Position Orientation Groundspeed Altitude Reporting Facility
EDT Latitude Longitude Course Direction KTS MPH feet Rate Location/Type
10:00PM 32.7553 -117.2872 284° West 213 245 4,200  Level Los Angeles Center
10:01PM 32.7086 -117.3278 216° Southwest 245 282 7,700 3,366 Climbing Los Angeles Center
10:02PM 32.6556 -117.2631 134° Southeast 273 314 11,100 2,758 Climbing Los Angeles Center
10:03PM 32.6389 -117.1664 102° East 297 342 13,400 2,585 Climbing Los Angeles Center
10:04PM 32.6169 -117.0292 101° East 344 396 16,400 2,634 Climbing Los Angeles Center
10:05PM 32.6167 -116.9028 90° East 378 435 18,800 2,293 Climbing Los Angeles Center
10:06PM 32.6306 -116.7708 83° East 398 458 21,100 2,293 Climbing Los Angeles Center
10:07PM 32.6444 -116.6292 83° East 431 496 23,500 2,226 Climbing Los Angeles Center
10:08PM 32.6572 -116.4881 84° East 432 497 25,700 1,805 Climbing Los Angeles Center
10:09PM 32.6725 -116.3406 83° East 452 520 27,200 1,561 Climbing Los Angeles Center
10:10PM 32.6894 -116.1525 84° East 481 554 28,900 1,463 Climbing Los Angeles Center
10:11PM 32.7050 -115.9897 83° East 498 573 30,200 1,317 Climbing Los Angeles Center
10:12PM 32.7211 -115.8200 84° East 515 593 31,600 1,463 Climbing Los Angeles Center
10:13PM 32.7367 -115.6483 84° East 523 602 33,200 1,610 Climbing Los Angeles Center
10:14PM 32.7511 -115.4775 84° East 523 602 34,900 1,805 Climbing Los Angeles Center
10:15PM 32.7561 -115.3083 88° East 518 596 36,900 1,024 Climbing Los Angeles Center
10:16PM 32.8053 -115.1203 73° East 506 582 37,000 49 Climbing Los Angeles Center
10:17PM 32.8556 -114.9656 69° East 504 580 37,000  Level Los Angeles Center
10:18PM 32.9081 -114.8122 68° East 504 580 37,000  Level Los Angeles Center
10:19PM 32.9583 -114.6575 69° East 505 581 37,000  Level Los Angeles Center
10:20PM 33.0097 -114.5019 68° East 506 582 37,000  Level Los Angeles Center
10:21PM 33.0603 -114.3458 69° East 506 582 37,000  Level Los Angeles Center
10:22PM 33.1083 -114.1894 70° East 507 583 37,000  Level Los Angeles Center
10:23PM 33.1458 -114.0800 68° East 506 582 37,000  Level Albuquerque Center
10:24PM 33.1978 -113.9222 68° East 508 585 37,000  Level Albuquerque Center
10:24PM 33.2203 -113.8439 71° East 505 581 37,000  Level Los Angeles Center
10:25PM 33.2756 -113.6842 67° East 518 596 37,000 326 Level Los Angeles Center
10:26PM 33.3008 -113.6033 69° East 510 587 37,500 848 Climbing Albuquerque Center
10:27PM 33.3506 -113.4425 70° East 511 588 38,300 639 Climbing Albuquerque Center
10:28PM 33.4039 -113.2783 69° East 521 600 38,800 295 Climbing Albuquerque Center
10:29PM 33.4556 -113.1114 70° East 527 606 38,900 49 Climbing Albuquerque Center
10:30PM 33.5089 -112.9406 69° East 540 621 38,900  Level Albuquerque Center
10:31PM 33.5639 -112.7669 69° East 550 633 38,900 49 Level Albuquerque Center
10:32PM 33.6206 -112.5878 69° East 551 634 39,000 49 Climbing Albuquerque Center
10:33PM 33.6742 -112.4128 70° East 556 640 39,000  Level Albuquerque Center
10:34PM 33.7283 -112.2381 70° East 559 643 39,000  Level Albuquerque Center
10:35PM 33.7819 -112.0622 70° East 561 646 39,000  Level Albuquerque Center
10:36PM 33.8450 -111.8547 70° East 560 644 39,000  Level Albuquerque Center
10:37PM 33.8983 -111.6786 70° East 560 644 39,000  Level Albuquerque Center
10:38PM 33.9494 -111.5136 69° East 561 646 39,000  Level Albuquerque Center
10:39PM 34.0017 -111.3369 70° East 561 646 39,000  Level Albuquerque Center
10:40PM 34.0550 -111.1606 70° East 564 649 39,000  Level Albuquerque Center
10:41PM 34.1069 -110.9844 70° East 564 649 39,000  Level Albuquerque Center
10:42PM 34.1575 -110.8083 71° East 561 646 39,000  Level Albuquerque Center
10:43PM 34.2111 -110.6242 71° East 561 646 39,000  Level Albuquerque Center
10:44PM 34.2628 -110.4472 70° East 561 646 39,000  Level Albuquerque Center
10:45PM 34.3217 -110.2417 71° East 562 647 39,000  Level Albuquerque Center
10:46PM 34.3711 -110.0700 71° East 563 648 39,000  Level Albuquerque Center
10:47PM 34.4194 -109.8975 71° East 565 650 39,000  Level Albuquerque Center
10:48PM 34.4781 -109.6978 70° East 565 650 39,000  Level Albuquerque Center
10:49PM 34.5261 -109.5233 71° East 568 654 39,000  Level Albuquerque Center
10:50PM 34.5825 -109.3200 71° East 569 655 39,000  Level Albuquerque Center
10:51PM 34.6311 -109.1478 71° East 569 655 39,000  Level Albuquerque Center
10:52PM 34.6781 -108.9747 72° East 568 654 39,000  Level Albuquerque Center
10:53PM 34.7336 -108.7731 71° East 568 654 39,000  Level Albuquerque Center
10:54PM 34.7806 -108.6000 72° East 567 652 39,000  Level Albuquerque Center
10:55PM 34.8281 -108.4250 72° East 567 652 39,000  Level Albuquerque Center
10:56PM 34.8825 -108.2217 72° East 567 652 39,000  Level Albuquerque Center
10:57PM 34.9292 -108.0458 72° East 565 650 39,000  Level Albuquerque Center
10:58PM 34.9767 -107.8636 72° East 565 650 39,000  Level Albuquerque Center
10:59PM 35.0447 -107.6903 64° Northeast 566 651 39,000  Level Albuquerque Center
11:00PM 35.1186 -107.5222 62° Northeast 563 648 39,000  Level Albuquerque Center
11:01PM 35.1975 -107.3336 63° Northeast 560 644 39,000  Level Albuquerque Center
11:02PM 35.2700 -107.1586 63° Northeast 557 641 39,000  Level Albuquerque Center
11:03PM 35.3392 -106.9903 63° Northeast 555 639 39,000  Level Albuquerque Center
11:04PM 35.4086 -106.8239 63° Northeast 550 633 39,000  Level Albuquerque Center
11:05PM 35.4783 -106.6533 63° Northeast 554 638 39,000  Level Albuquerque Center
11:07PM 35.5483 -106.4853 63° Northeast 557 641 39,000  Level Albuquerque Center
11:08PM 35.6228 -106.3028 63° Northeast 558 642 39,000  Level Albuquerque Center
11:09PM 35.6817 -106.1708 61° Northeast 552 635 39,000  Level Albuquerque Center
11:10PM 35.7519 -106.0017 63° Northeast 553 636 39,000  Level Albuquerque Center
11:11PM 35.8322 -105.7964 64° Northeast 553 636 39,000  Level Albuquerque Center
11:12PM 35.9006 -105.6258 64° Northeast 554 638 39,000  Level Albuquerque Center
11:13PM 35.9725 -105.4442 64° Northeast 554 638 39,000  Level Albuquerque Center
11:14PM 36.0403 -105.2750 64° Northeast 548 631 39,000  Level Albuquerque Center
11:15PM 36.1067 -105.1053 64° Northeast 546 628 39,000  Level Albuquerque Center
11:16PM 36.1742 -104.9342 64° Northeast 546 628 39,000  Level Albuquerque Center
11:17PM 36.2408 -104.7611 64° Northeast 547 629 39,000  Level Albuquerque Center
11:18PM 36.3086 -104.5886 64° Northeast 548 631 39,000  Level Albuquerque Center
11:19PM 36.3753 -104.4167 64° Northeast 548 631 39,000  Level Albuquerque Center
11:20PM 36.4414 -104.2447 64° Northeast 547 629 39,000  Level Albuquerque Center
11:21PM 36.5086 -104.0733 64° Northeast 547 629 39,000  Level Albuquerque Center
11:22PM 36.5764 -103.8989 64° Northeast 548 631 39,000  Level Albuquerque Center
11:23PM 36.6436 -103.7200 65° Northeast 559 643 39,000  Level Albuquerque Center
11:24PM 36.7114 -103.5397 65° Northeast 557 641 39,000  Level Albuquerque Center
11:25PM 36.7739 -103.3711 65° Northeast 557 641 39,000  Level Albuquerque Center
11:26PM 36.8458 -103.1778 65° Northeast 557 641 39,000  Level Albuquerque Center
11:27PM 36.9078 -103.0117 65° Northeast 556 640 39,000  Level Albuquerque Center
11:28PM 36.9700 -102.8433 65° Northeast 558 642 39,000  Level Albuquerque Center
11:29PM 37.0419 -102.6497 65° Northeast 556 640 39,000  Level Albuquerque Center
11:30PM 37.1072 -102.4683 66° East 552 635 39,000  Level Albuquerque Center
11:31PM 37.1656 -102.3003 66° East 552 635 39,000  Level Kansas City Center
11:32PM 37.2267 -102.1322 65° Northeast 552 635 39,000  Level Kansas City Center
11:33PM 37.2867 -101.9625 66° East 552 635 39,000  Level Kansas City Center
11:34PM 37.3575 -101.7658 66° East 553 636 39,000  Level Kansas City Center
11:35PM 37.4167 -101.5972 66° East 553 636 39,000  Level Kansas City Center
11:36PM 37.4758 -101.4283 66° East 553 636 39,000  Level Kansas City Center
11:37PM 37.5447 -101.2311 66° East 553 636 39,000  Level Kansas City Center
11:38PM 37.6069 -101.0514 66° East 553 636 39,000  Level Kansas City Center
11:39PM 37.6672 -100.8742 67° East 553 636 39,000  Level Kansas City Center
11:40PM 37.7314 -100.6931 66° East 555 639 39,000  Level Kansas City Center
11:41PM 37.7914 -100.5147 67° East 555 639 39,000  Level Kansas City Center
11:42PM 37.8536 -100.3344 66° East 555 639 39,000  Level Kansas City Center
11:43PM 37.9108 -100.1608 67° East 557 641 39,000  Level Kansas City Center
11:44PM 37.9686 -99.9875 67° East 557 641 39,000  Level Kansas City Center
11:45PM 38.0361 -99.7847 67° East 557 641 39,000  Level Kansas City Center
11:46PM 38.0939 -99.6111 67° East 559 643 39,000  Level Kansas City Center
11:47PM 38.1456 -99.4497 68° East 559 643 39,000  Level Kansas City Center
11:48PM 38.2058 -99.2653 67° East 560 644 39,000  Level Kansas City Center
11:49PM 38.2775 -99.0469 67° East 560 644 39,000  Level Kansas City Center
11:50PM 38.3381 -98.8628 67° East 560 644 39,000  Level Kansas City Center
11:51PM 38.3964 -98.6778 68° East 560 644 39,000  Level Kansas City Center
11:52PM 38.4558 -98.4933 68° East 560 644 39,000  Level Kansas City Center
11:53PM 38.5144 -98.3108 68° East 557 641 39,000  Level Kansas City Center
11:54PM 38.5728 -98.1269 68° East 557 641 39,000  Level Kansas City Center
11:55PM 38.6303 -97.9392 69° East 560 644 39,000  Level Kansas City Center
11:56PM 38.6875 -97.7544 68° East 557 641 39,000  Level Kansas City Center
11:57PM 38.7483 -97.5642 68° East 557 641 39,000  Level Kansas City Center
11:58PM 38.8025 -97.3783 69° East 575 662 39,000  Level Kansas City Center
11:59PM 38.8597 -97.1908 69° East 567 652 39,000  Level Kansas City Center
12:00AM 38.9158 -97.0033 69° East 564 649 39,000  Level Kansas City Center
12:01AM 38.9725 -96.8153 69° East 565 650 39,000  Level Kansas City Center
12:02AM 39.0283 -96.6342 68° East 558 642 39,000  Level Kansas City Center
12:03AM 39.0797 -96.4533 70° East 560 644 39,000  Level Kansas City Center
12:04AM 39.1411 -96.2436 69° East 560 644 39,000  Level Kansas City Center
12:05AM 39.1939 -96.0633 69° East 560 644 39,000  Level Kansas City Center
12:06AM 39.2461 -95.8822 70° East 560 644 39,000  Level Kansas City Center
12:07AM 39.3061 -95.6725 70° East 558 642 39,000  Level Kansas City Center
12:08AM 39.3581 -95.4911 70° East 558 642 39,000  Level Kansas City Center
12:09AM 39.4167 -95.2925 69° East 555 639 39,000  Level Kansas City Center
12:10AM 39.4822 -95.1064 65° Northeast 555 639 39,000  Level Kansas City Center
12:11AM 39.5433 -94.9261 66° East 554 638 39,000  Level Kansas City Center
12:12AM 39.6031 -94.7522 66° East 553 636 39,000  Level Kansas City Center
12:13AM 39.6619 -94.5772 66° East 553 636 39,000  Level Kansas City Center
12:14AM 39.7208 -94.4031 66° East 552 635 39,000  Level Kansas City Center
12:15AM 39.7875 -94.1997 67° East 551 634 39,000  Level Kansas City Center
12:16AM 39.8406 -94.0367 67° East 551 634 39,000  Level Kansas City Center
12:17AM 39.9000 -93.8536 67° East 553 636 39,000  Level Kansas City Center
12:18AM 39.9606 -93.6711 67° East 553 636 39,000  Level Kansas City Center
12:19AM 40.0208 -93.4878 67° East 553 636 39,000  Level Kansas City Center
12:20AM 40.0789 -93.3008 68° East 555 639 39,000  Level Kansas City Center
12:21AM 40.1403 -93.1172 66° East 555 639 39,000  Level Kansas City Center
12:22AM 40.2100 -92.8989 67° East 555 639 39,000  Level Kansas City Center
12:23AM 40.2675 -92.7200 67° East 556 640 39,000  Level Kansas City Center
12:24AM 40.3236 -92.5419 67° East 555 639 39,000  Level Kansas City Center
12:25AM 40.3836 -92.3517 67° East 555 639 39,000  Level Kansas City Center
12:26AM 40.4397 -92.1697 68° East 556 640 39,000  Level Kansas City Center
12:28AM 40.5083 -91.9475 68° East 555 639 39,000  Level Chicago Center
12:28AM 40.5542 -91.7972 68° East 555 639 39,000  Level Kansas City Center
12:29AM 40.6111 -91.6117 68° East 555 639 39,000  Level Kansas City Center
12:30AM 40.6658 -91.4247 69° East 554 638 39,000  Level Kansas City Center
12:31AM 40.7261 -91.2264 68° East 554 638 39,000  Level Kansas City Center
12:32AM 40.7819 -91.0383 69° East 553 636 39,000  Level Kansas City Center
12:33AM 40.8389 -90.8494 68° East 553 636 39,000 -98 Level Kansas City Center
12:35AM 40.8933 -90.6603 69° East 553 636 38,800 -595 Descending Kansas City Center
12:36AM 40.9483 -90.4700 69° East 552 635 37,800 -1,728 Descending Kansas City Center
12:37AM 41.0139 -90.2453 69° East 549 632 35,200 -2,880 Descending Chicago Center
12:38AM 41.0683 -90.0553 69° East 546 628 31,800 -3,050 Descending Chicago Center
12:39AM 41.1231 -89.8619 69° East 551 634 29,100 -2,579 Descending Chicago Center
12:40AM 41.1753 -89.6769 69° East 536 617 26,600 -2,430 Descending Chicago Center
12:41AM 41.2258 -89.4997 69° East 516 594 24,200 -2,400 Descending Chicago Center
12:42AM 41.2736 -89.3283 70° East 499 574 21,800 -2,132 Descending Chicago Center
12:43AM 41.3147 -89.1797 70° East 478 550 19,900 -2,033 Descending Chicago Center
12:44AM 41.3567 -89.0200 71° East 461 531 17,700 -2,250 Descending Chicago Center
12:45AM 41.3992 -88.8686 69° East 442 509 15,400 -2,500 Descending Chicago Center
12:46AM 41.4428 -88.7011 71° East 423 487 12,700 -2,331 Descending Chicago Center
12:47AM 41.4744 -88.5636 73° East 383 441 10,700 -1,388 Descending Chicago Center
12:48AM 41.5025 -88.4364 74° East 350 403 9,900 -900 Descending Chicago Center
12:49AM 41.5283 -88.3275 72° East 310 357 8,900 -1,250 Descending Chicago Center
12:50AM 41.5525 -88.2239 73° East 297 342 7,400 -1,450 Descending Chicago Center
12:51AM 41.5764 -88.1200 73° East 294 338 6,000 -1,289 Descending Chicago Center
12:52AM 41.5989 -88.0228 73° East 275 316 4,800 -992 Descending Chicago Center
12:53AM 41.6333 -87.9439 60° Northeast 247 284 4,000 -600 Descending Chicago Center
12:54AM 41.6758 -87.8881 44° Northeast 211 243 3,600 -750 Descending Chicago Center
12:55AM 41.7125 -87.8425 43° Northeast 178 205 2,500 -942 Descending Chicago Center
12:56AM 41.7414 -87.8064 43° Northeast 144 166 1,700 -744 Descending Chicago Center
12:57AM 41.7661 -87.7744 44° Northeast 126 145 1,000 -550 Descending Chicago Center
12:58AM 41.7906 -87.7433 43° Northeast 126 145 600 -400 Descending Chicago Center